Nearby METAR

 

KANW - Ainsworth, Nebraska, USA
Distance from station: SE 36mi, 57km
Updated: Wed, 31-Dec-1969 6:00pm CST
NOT Current
unable to load KANW data RC=
unable to load KANW data RC=
 
KICR - Winner, South Dakota, USA
Distance from station: NE 50mi, 80km
Updated: Wed, 20-Jun-2018 1:53am CDT
Clear
Clear
 Wind from E
Wind: E 5 mph , 7 km/h
Temperature: 64°F , 18°C
Dew Point: 61°F , 16°C
Humidity: 88%
Barometer: 29.99 inHg , 1015.6 hPa
Clouds: Clear
Visibility: 10 miles , 16 km
2018/06/20 06:53 KICR 200653Z AUTO 08004KT 10SM CLR 18/16 A2999 RMK AO2 SLP146 T01830161
 
KTIF - Thedford, Nebraska, USA
Distance from station: S 63mi, 101km
Updated: Wed, 20-Jun-2018 1:55am CDT
Overcast
Overcast
 Wind from NNE
Wind: NNE 3 mph , 6 km/h
Temperature: 64°F , 18°C
Dew Point: 64°F , 18°C
Humidity: 100%
Barometer: 30.01 inHg , 1016.3 hPa
Clouds: Overcast
Visibility: 10 miles , 16 km
Cloud details: Overcast 600 ft
2018/06/20 06:55 KTIF 200655Z AUTO 02003KT 10SM OVC006 18/18 A3001 RMK AO2 T01820175
K9V9 - Chamberlain, South Dakota, USA
Distance from station: NE 87mi, 141km
Updated: Wed, 20-Jun-2018 1:55am CDT
Clear
Clear
 Wind from E
Wind: E 5 mph , 7 km/h
Temperature: 66°F , 19°C
Dew Point: 66°F , 19°C
Humidity: 100%
Barometer: 29.96 inHg , 1014.6 hPa
Clouds: Clear
Visibility: 10 miles , 16 km
2018/06/20 06:55 K9V9 200655Z AUTO 08004KT 10SM CLR 19/19 A2996 RMK AO2 T01880188
 
KIEN - Pine Ridge, South Dakota, USA
Distance from station: W 99mi, 160km
Updated: Wed, 20-Jun-2018 1:52am CDT
Overcast
Overcast
 Wind from W
Wind: W 5 mph , 7 km/h
Temperature: 55°F , 13°C
Dew Point: 55°F , 13°C
Humidity: 100%
Barometer: 30.08 inHg , 1018.6 hPa
Clouds: Overcast
Visibility: 10 miles , 16 km
Cloud details: Overcast 900 ft
2018/06/20 06:52 KIEN 200652Z AUTO 28004KT 10SM OVC009 13/13 A3008 RMK AO2 CIG 006V011 SLP173 T01330128 402000122 PNO $
KPIR - Pierre, South Dakota, USA
Distance from station: N 105mi, 169km
Updated: Wed, 20-Jun-2018 1:53am CDT
Mostly cloudy
Mostly cloudy
 Wind from NE
Wind: NE 7 mph , 11 km/h
Temperature: 63°F , 17°C
Dew Point: 61°F , 16°C
Humidity: 94%
Barometer: 29.97 inHg , 1014.9 hPa
Clouds: Mostly cloudy
Visibility: 10 miles , 16 km
Cloud details: Mostly cloudy 11000 ft
2018/06/20 06:53 KPIR 200653Z AUTO 05006KT 10SM BKN110 17/16 A2997 RMK AO2 SLP138 T01720161
 
KLBF - North Platte, Nebraska, USA
Distance from station: S 120mi, 193km
Updated: Wed, 20-Jun-2018 1:53am CDT
Mostly cloudy
Mostly cloudy
 Wind from ENE
Wind: ENE 6 mph , 9 km/h
Temperature: 66°F , 19°C
Dew Point: 64°F , 18°C
Humidity: 94%
Barometer: 30.00 inHg , 1015.9 hPa
Clouds: Mostly cloudy
Visibility: 10 miles , 16 km
Cloud details: Few Clouds 1000 ft
Mostly cloudy 2600 ft
Mostly cloudy 3300 ft
2018/06/20 06:53 KLBF 200653Z AUTO 07005KT 10SM FEW010 BKN026 BKN033 19/18 A3000 RMK AO2 SLP135 T01890178
KBBW - Broken Bow Muni, Nebraska, USA
Distance from station: SSE 110mi, 177km
Updated: Wed, 20-Jun-2018 1:53am CDT
Light rain, Overcast
Light rain, Overcast
 Wind from E
Wind: E 13 mph , 20 km/h
Temperature: 66°F , 19°C
Dew Point: 64°F , 18°C
Humidity: 94%
Barometer: 29.97 inHg , 1014.9 hPa
Summary: Light rain
Clouds: Overcast
Visibility: 10 miles , 16 km
Cloud details: Mostly cloudy 800 ft
Mostly cloudy 1800 ft
Overcast 7000 ft
2018/06/20 06:53 KBBW 200653Z AUTO 08011KT 10SM -RA BKN008 BKN018 OVC070 19/18 A2997 RMK AO2 SLP131 P0003 T01890183
 
KRAP - Rapid City, South Dakota, USA
Distance from station: NW 149mi, 240km
Updated: Wed, 20-Jun-2018 1:52am CDT
Overcast
Overcast
 Wind from WNW
Wind: WNW 8 mph , 13 km/h
Temperature: 57°F , 14°C
Dew Point: 57°F , 14°C
Humidity: 100%
Barometer: 30.07 inHg , 1018.3 hPa
Clouds: Overcast
Visibility: 10 miles , 16 km
Cloud details: Mostly cloudy 1300 ft
Overcast 2100 ft
2018/06/20 06:52 KRAP 200652Z AUTO 29007KT 10SM BKN013 OVC021 14/14 A3007 RMK AO2 RAB22E52 SLP170 P0001 T01440144 402060122